Time;durP1;ratioP1;P1;durP2;ratioP2;P2;SDS_P1;SDS_P2;PMS_P1;PMS_P2;Temp;Humidity;BMP_temperature;BMP_pressure;BME280_temperature;BME280_humidity;BME280_pressure;Samples;Min_cycle;Max_cycle;Signal;HPM_P1;HPM_P2
2021/01/05 00:00:13;;;;;;;58.13;26.88;;;0.30;94.80;;;;;;5029857;28;20342;-76
2021/01/05 00:02:39;;;;;;;59.58;25.83;;;0.40;95.20;;;;;;5031361;28;20026;-76
2021/01/05 00:05:07;;;;;;;56.05;26.30;;;0.20;95.80;;;;;;5033612;28;20017;-76
2021/01/05 00:07:32;;;;;;;55.65;25.95;;;0.30;96.10;;;;;;5033643;28;20527;-76
2021/01/05 00:09:58;;;;;;;51.53;25.95;;;0.40;95.40;;;;;;5033359;28;20119;-77
2021/01/05 00:12:24;;;;;;;62.88;26.58;;;0.40;95.50;;;;;;5034996;28;20112;-77
2021/01/05 00:14:50;;;;;;;62.45;27.38;;;0.30;95.60;;;;;;5034912;28;20036;-77
2021/01/05 00:17:18;;;;;;;57.25;26.63;;;0.30;95.70;;;;;;5034838;28;20033;-77
2021/01/05 00:19:45;;;;;;;56.50;26.75;;;0.20;95.50;;;;;;5034542;28;20041;-77
2021/01/05 00:22:11;;;;;;;55.85;25.55;;;0.30;96.00;;;;;;5034514;28;20025;-77
2021/01/05 00:24:37;;;;;;;55.05;25.30;;;0.20;95.70;;;;;;5034911;28;20029;-77
2021/01/05 00:27:03;;;;;;;60.67;27.08;;;0.30;95.60;;;;;;5033186;28;20030;-77
2021/01/05 00:29:29;;;;;;;55.25;26.42;;;0.40;95.30;;;;;;5034940;28;20506;-76
2021/01/05 00:32:11;;;;;;;63.78;25.60;;;0.60;95.10;;;;;;5034462;28;20031;-76
2021/01/05 00:34:37;;;;;;;55.38;25.92;;;0.60;93.90;;;;;;5033242;28;20027;-76
2021/01/05 00:37:03;;;;;;;52.65;25.15;;;0.70;93.70;;;;;;5034553;28;20029;-77
2021/01/05 00:39:29;;;;;;;62.58;27.77;;;0.70;93.80;;;;;;5033245;28;20108;-77
2021/01/05 00:41:54;;;;;;;54.58;24.38;;;0.50;93.50;;;;;;5016310;28;20025;-76
2021/01/05 00:44:20;;;;;;;60.97;27.75;;;0.40;93.70;;;;;;5034759;28;20101;-76
2021/01/05 00:46:46;;;;;;;55.53;25.05;;;0.30;93.70;;;;;;5033871;28;20030;-76
2021/01/05 00:49:12;;;;;;;54.08;25.65;;;0.10;93.70;;;;;;5016399;28;20065;-76
2021/01/05 00:51:37;;;;;;;53.50;25.92;;;0.00;94.20;;;;;;5032810;28;20049;-77
2021/01/05 00:54:03;;;;;;;54.10;24.40;;;0.20;94.40;;;;;;5032791;28;20034;-76
2021/01/05 00:56:29;;;;;;;54.97;25.60;;;0.20;94.20;;;;;;5032732;28;20029;-77
2021/01/05 00:58:59;;;;;;;53.90;24.85;;;0.20;94.00;;;;;;5015691;28;20034;-77
2021/01/05 01:01:24;;;;;;;66.28;26.27;;;0.30;94.20;;;;;;5034295;28;20021;-76
2021/01/05 01:03:51;;;;;;;54.30;24.38;;;0.20;93.90;;;;;;5032699;28;20489;-77
2021/01/05 01:06:18;;;;;;;52.58;26.42;;;0.10;93.80;;;;;;5032443;28;20469;-76
2021/01/05 01:08:44;;;;;;;60.00;25.45;;;0.10;94.90;;;;;;5032582;28;20358;-76
2021/01/05 01:11:10;;;;;;;54.42;26.38;;;0.10;94.40;;;;;;5033872;28;20033;-77
2021/01/05 01:13:36;;;;;;;49.25;25.30;;;0.10;94.40;;;;;;5032681;28;20025;-77
2021/01/05 01:16:02;;;;;;;51.70;25.75;;;0.10;94.90;;;;;;5032981;28;20032;-77
2021/01/05 01:18:28;;;;;;;53.33;25.60;;;0.10;94.50;;;;;;5016165;28;20033;-77
2021/01/05 01:20:54;;;;;;;52.83;25.25;;;0.30;94.10;;;;;;5034412;28;20104;-77
2021/01/05 01:23:20;;;;;;;56.10;24.17;;;0.20;93.90;;;;;;5034212;28;20025;-77
2021/01/05 01:25:46;;;;;;;57.85;25.55;;;0.20;94.00;;;;;;5034200;28;20077;-76
2021/01/05 01:28:12;;;;;;;52.40;23.75;;;0.20;94.30;;;;;;5033252;28;20025;-76
2021/01/05 01:30:37;;;;;;;49.72;23.77;;;0.10;94.20;;;;;;5032226;28;20026;-76
2021/01/05 01:33:03;;;;;;;57.40;26.60;;;0.20;94.00;;;;;;5032513;28;20044;-76
2021/01/05 01:35:29;;;;;;;55.63;24.48;;;0.30;94.20;;;;;;5032363;28;20084;-75
2021/01/05 01:37:55;;;;;;;53.28;24.17;;;0.30;93.00;;;;;;5033884;28;20428;-76
2021/01/05 01:40:39;;;;;;;48.58;24.02;;;0.20;93.80;;;;;;5033550;28;20393;-77
2021/01/05 01:43:06;;;;;;;55.55;23.35;;;0.30;93.90;;;;;;5032294;28;20029;-78
2021/01/05 01:45:33;;;;;;;56.28;24.73;;;0.30;93.60;;;;;;5031487;28;20029;-77
2021/01/05 01:48:05;;;;;;;54.92;24.60;;;0.40;93.60;;;;;;5032141;28;20371;-77
2021/01/05 01:50:33;;;;;;;52.92;25.65;;;0.30;92.60;;;;;;5031848;28;20033;-77
2021/01/05 01:53:22;;;;;;;59.38;25.52;;;0.30;93.50;;;;;;5033702;28;20025;-77
2021/01/05 01:56:26;;;;;;;57.63;25.60;;;0.10;93.10;;;;;;5032459;28;20033;-76
2021/01/05 01:58:56;;;;;;;55.22;24.92;;;0.10;93.60;;;;;;5026110;28;20041;-77
2021/01/05 02:01:44;;;;;;;52.08;24.92;;;0.00;93.90;;;;;;5032527;28;20013;-76
2021/01/05 02:04:21;;;;;;;58.35;25.80;;;-0.10;93.90;;;;;;5032953;28;20021;-76
2021/01/05 02:07:02;;;;;;;54.10;25.20;;;0.00;94.00;;;;;;5032890;28;20026;-76
2021/01/05 02:10:11;;;;;;;53.30;25.38;;;0.00;94.50;;;;;;5031388;28;20036;-76
2021/01/05 02:13:14;;;;;;;48.75;24.98;;;0.00;94.20;;;;;;5010279;28;20113;-77
2021/01/05 02:16:16;;;;;;;51.17;25.88;;;0.10;93.90;;;;;;5031031;28;20029;-76
2021/01/05 02:18:45;;;;;;;46.55;24.05;;;0.10;93.40;;;;;;5032550;28;20488;-76
2021/01/05 02:21:22;;;;;;;49.75;24.15;;;0.00;93.60;;;;;;5032179;28;20033;-77
2021/01/05 02:24:06;;;;;;;52.92;25.25;;;-0.20;93.30;;;;;;5031325;28;20021;-77
2021/01/05 02:26:50;;;;;;;61.17;26.35;;;-0.10;93.80;;;;;;5030732;28;20096;-76
2021/01/05 02:29:22;;;;;;;54.65;25.15;;;-0.10;93.80;;;;;;5014715;28;20112;-76
2021/01/05 02:31:48;;;;;;;;;;;-0.10;93.40;;;;;;5032981;28;20025;-77
2021/01/05 02:34:40;;;;;;;54.30;23.88;;;-0.10;93.10;;;;;;5031199;28;19909;-77
2021/01/05 02:37:06;;;;;;;47.33;23.98;;;-0.10;93.20;;;;;;5030770;28;20112;-77
2021/01/05 02:40:22;;;;;;;57.63;26.02;;;-0.20;93.70;;;;;;5032254;28;20096;-76
2021/01/05 02:42:58;;;;;;;54.67;26.27;;;-0.20;94.00;;;;;;5023099;28;20057;-76
2021/01/05 02:45:45;;;;;;;53.78;26.17;;;0.00;94.10;;;;;;5031207;28;20036;-77
2021/01/05 02:48:38;;;;;;;51.60;24.42;;;0.00;93.50;;;;;;5031406;28;20025;-77
2021/01/05 02:51:21;;;;;;;52.08;24.23;;;0.10;93.40;;;;;;5014963;28;20026;-77
2021/01/05 02:54:25;;;;;;;51.17;24.60;;;0.10;93.00;;;;;;5031031;28;20030;-76
2021/01/05 02:57:09;;;;;;;58.70;25.02;;;0.10;92.70;;;;;;5031932;28;20028;-76
2021/01/05 02:59:47;;;;;;;52.15;24.63;;;-0.10;92.60;;;;;;5031914;28;20032;-76
2021/01/05 03:02:31;;;;;;;51.80;25.92;;;-0.10;92.90;;;;;;5031669;28;20025;-77
2021/01/05 03:04:57;;;;;;;59.78;24.85;;;0.00;93.50;;;;;;5031999;28;20026;-76
2021/01/05 03:07:28;;;;;;;52.55;25.30;;;0.10;93.20;;;;;;5030310;28;20028;-76
2021/01/05 03:10:14;;;;;;;56.47;25.17;;;0.10;92.70;;;;;;5032273;28;20036;-76
2021/01/05 03:12:54;;;;;;;54.67;25.55;;;0.10;92.90;;;;;;5013989;28;20446;-76
2021/01/05 03:15:48;;;;;;;56.17;24.27;;;-0.10;92.10;;;;;;5032097;28;20072;-76
2021/01/05 03:18:30;;;;;;;60.10;26.75;;;0.00;92.70;;;;;;5031795;28;20468;-76
2021/01/05 03:21:13;;;;;;;53.17;25.23;;;-0.10;92.30;;;;;;5016677;28;20022;-76
2021/01/05 03:23:40;;;;;;;52.95;25.38;;;0.00;93.20;;;;;;5010609;28;20106;-76
2021/01/05 03:26:09;;;;;;;56.13;25.13;;;0.00;93.00;;;;;;5011922;28;20045;-77
2021/01/05 03:28:36;;;;;;;52.42;23.45;;;0.00;93.30;;;;;;5010644;28;20029;-76
2021/01/05 03:31:33;;;;;;;56.05;24.92;;;0.00;93.10;;;;;;5011955;28;20030;-76
2021/01/05 03:34:01;;;;;;;58.97;25.88;;;-0.20;92.80;;;;;;5010592;28;20026;-76
2021/01/05 03:36:27;;;;;;;54.92;25.00;;;-0.20;93.90;;;;;;4994337;28;20037;-76
2021/01/05 03:38:53;;;;;;;53.25;26.10;;;-0.10;93.70;;;;;;5014145;28;20508;-77
2021/01/05 03:41:18;;;;;;;55.53;24.95;;;0.10;93.50;;;;;;5014798;28;20052;-76
2021/01/05 03:43:44;;;;;;;55.13;26.25;;;0.30;93.30;;;;;;5015821;28;20033;-77
2021/01/05 03:46:11;;;;;;;53.67;24.85;;;0.40;92.50;;;;;;5015863;28;20426;-76
2021/01/05 03:48:37;;;;;;;54.15;25.25;;;0.30;92.10;;;;;;5016424;28;20379;-77
2021/01/05 03:51:03;;;;;;;53.65;25.45;;;0.30;92.50;;;;;;5015579;28;20428;-78
2021/01/05 03:53:29;;;;;;;51.28;24.05;;;0.30;92.30;;;;;;5014516;28;20060;-78
2021/01/05 03:55:55;;;;;;;57.15;25.50;;;0.20;91.50;;;;;;5012938;28;20054;-77
2021/01/05 03:58:21;;;;;;;63.40;28.25;;;0.10;92.00;;;;;;5014256;28;20026;-76
2021/01/05 04:00:47;;;;;;;54.00;25.10;;;0.10;92.30;;;;;;5013918;28;20113;-77
2021/01/05 04:03:12;;;;;;;59.47;26.27;;;0.00;92.50;;;;;;5014370;28;20080;-76
2021/01/05 04:05:38;;;;;;;57.88;24.73;;;0.00;92.30;;;;;;5013814;28;20501;-76
2021/01/05 04:08:04;;;;;;;53.45;24.45;;;0.00;92.70;;;;;;5013992;28;20429;-76
2021/01/05 04:10:30;;;;;;;53.58;25.08;;;0.00;92.90;;;;;;5014174;28;20022;-76
2021/01/05 04:12:55;;;;;;;63.70;27.42;;;0.10;92.00;;;;;;5013660;28;20060;-77
2021/01/05 04:15:24;;;;;;;53.00;26.13;;;0.00;92.30;;;;;;5013993;28;20080;-77
2021/01/05 04:17:51;;;;;;;68.30;25.30;;;0.00;92.30;;;;;;5015136;28;20026;-77
2021/01/05 04:20:18;;;;;;;119.60;32.05;;;0.00;92.80;;;;;;4997618;28;20089;-76
2021/01/05 04:22:44;;;;;;;70.82;27.52;;;0.10;92.60;;;;;;5015047;28;20026;-77
2021/01/05 04:25:11;;;;;;;58.00;26.13;;;0.10;92.30;;;;;;5013839;28;20037;-77
2021/01/05 04:27:37;;;;;;;54.95;25.75;;;0.10;92.60;;;;;;5013250;28;20480;-76
2021/01/05 04:30:06;;;;;;;56.50;25.50;;;0.10;92.30;;;;;;5014219;28;20033;-77
2021/01/05 04:32:31;;;;;;;58.05;26.45;;;0.10;92.00;;;;;;5013912;28;20061;-78
2021/01/05 04:34:58;;;;;;;54.97;24.77;;;0.20;92.40;;;;;;5014486;28;20045;-77
2021/01/05 04:37:24;;;;;;;58.22;26.48;;;0.30;92.20;;;;;;5013975;28;20541;-77
2021/01/05 04:39:50;;;;;;;57.70;27.20;;;0.40;91.80;;;;;;4997633;28;20481;-77
2021/01/05 04:42:26;;;;;;;56.53;26.50;;;0.20;91.30;;;;;;5013696;28;20026;-77
2021/01/05 04:45:07;;;;;;;62.78;27.27;;;0.30;92.00;;;;;;5014699;28;20030;-77
2021/01/05 04:48:03;;;;;;;55.83;25.13;;;0.30;92.10;;;;;;5015095;28;20202;-77
2021/01/05 04:50:42;;;;;;;61.22;27.27;;;0.40;91.70;;;;;;5013388;28;20466;-76
2021/01/05 04:53:16;;;;;;;55.97;26.35;;;0.20;91.80;;;;;;5012939;28;20036;-77
2021/01/05 04:55:48;;;;;;;56.03;26.00;;;0.10;92.00;;;;;;5013238;28;20481;-77
2021/01/05 04:58:50;;;;;;;62.78;27.25;;;-0.10;91.80;;;;;;5013075;28;20029;-77
2021/01/05 05:01:23;;;;;;;61.97;26.30;;;-0.10;92.00;;;;;;5011567;28;20112;-76
2021/01/05 05:04:02;;;;;;;58.40;25.05;;;-0.20;91.90;;;;;;5014655;28;20030;-77
2021/01/05 05:06:43;;;;;;;59.83;27.83;;;-0.30;92.60;;;;;;5014415;28;20025;-76
2021/01/05 05:09:37;;;;;;;52.47;25.75;;;-0.10;92.90;;;;;;5012957;28;20021;-77
2021/01/05 05:12:16;;;;;;;60.58;27.17;;;-0.10;92.60;;;;;;5014580;28;20402;-77
2021/01/05 05:14:47;;;;;;;56.55;27.85;;;0.00;92.60;;;;;;5012457;28;20691;-77
2021/01/05 05:17:16;;;;;;;;;;;0.00;92.30;;;;;;5013165;28;20064;-77
2021/01/05 05:20:04;;;;;;;56.80;24.83;;;0.10;92.60;;;;;;5012146;28;19909;-76
2021/01/05 05:22:49;;;;;;;56.42;25.35;;;0.00;92.10;;;;;;4996442;28;20022;-76
2021/01/05 05:25:18;;;;;;;51.95;25.02;;;0.10;92.30;;;;;;5013602;28;20032;-76
2021/01/05 05:27:54;;;;;;;56.70;26.02;;;0.00;92.10;;;;;;5012682;28;20022;-76
2021/01/05 05:30:37;;;;;;;56.42;26.05;;;-0.10;91.80;;;;;;5014032;28;20021;-76
2021/01/05 05:33:19;;;;;;;60.85;27.02;;;-0.30;92.50;;;;;;5014001;28;20038;-77
2021/01/05 05:36:12;;;;;;;53.45;25.30;;;-0.10;93.10;;;;;;4996087;28;20504;-76
2021/01/05 05:39:02;;;;;;;58.95;25.80;;;0.00;92.70;;;;;;5013595;28;20026;-77
2021/01/05 05:41:35;;;;;;;56.70;25.20;;;0.00;92.20;;;;;;5012261;28;20026;-77
2021/01/05 05:44:37;;;;;;;80.72;28.02;;;0.00;92.10;;;;;;5012366;28;20144;-76
2021/01/05 05:47:11;;;;;;;66.97;26.63;;;0.10;92.70;;;;;;5013577;28;20026;-75
2021/01/05 05:49:46;;;;;;;60.28;25.88;;;0.10;92.20;;;;;;5012152;28;20389;-76
2021/01/05 05:52:26;;;;;;;63.78;26.75;;;0.00;92.60;;;;;;5012142;28;20413;-77
2021/01/05 05:54:56;;;;;;;66.80;27.95;;;-0.10;92.50;;;;;;5013797;28;20026;-77
2021/01/05 05:57:45;;;;;;;67.40;30.40;;;0.00;92.50;;;;;;5013146;28;20071;-76
2021/01/05 06:00:13;;;;;;;64.30;26.02;;;0.10;92.00;;;;;;5006335;28;20091;-76
2021/01/05 06:02:40;;;;;;;69.55;27.75;;;0.00;91.30;;;;;;5012780;28;20033;-76
2021/01/05 06:05:33;;;;;;;61.00;27.23;;;0.00;91.90;;;;;;4995573;28;20060;-76
2021/01/05 06:07:59;;;;;;;64.90;27.92;;;-0.20;92.50;;;;;;5010418;28;20045;-77
2021/01/05 06:10:25;;;;;;;93.32;30.75;;;-0.10;92.60;;;;;;4995523;28;20021;-77
2021/01/05 06:12:52;;;;;;;71.65;28.88;;;0.00;93.10;;;;;;5011986;28;20026;-77
2021/01/05 06:15:17;;;;;;;74.25;28.48;;;0.00;92.30;;;;;;5012517;28;20087;-77
2021/01/05 06:17:43;;;;;;;70.10;28.55;;;0.00;92.10;;;;;;4995457;28;20391;-77
2021/01/05 06:20:10;;;;;;;67.03;27.40;;;-0.10;92.50;;;;;;5013040;28;20022;-77
2021/01/05 06:22:35;;;;;;;58.50;27.50;;;-0.20;92.90;;;;;;5011485;28;20537;-76
2021/01/05 06:25:02;;;;;;;76.88;26.52;;;-0.20;92.70;;;;;;5011490;28;20072;-76
2021/01/05 06:27:28;;;;;;;59.38;26.45;;;-0.20;92.50;;;;;;5011231;28;20033;-77
2021/01/05 06:29:54;;;;;;;61.67;25.67;;;-0.20;92.80;;;;;;5012822;28;20033;-76
2021/01/05 06:32:19;;;;;;;65.93;26.08;;;-0.20;92.90;;;;;;5012828;28;20105;-76
2021/01/05 06:34:45;;;;;;;60.35;27.33;;;-0.20;92.70;;;;;;5011190;28;20450;-76
2021/01/05 06:37:11;;;;;;;64.18;27.70;;;-0.30;92.80;;;;;;5011001;28;20394;-76
2021/01/05 06:39:37;;;;;;;58.90;26.90;;;-0.30;93.30;;;;;;5011175;28;20524;-77
2021/01/05 06:42:02;;;;;;;70.78;29.63;;;-0.40;93.10;;;;;;5012767;28;20025;-76
2021/01/05 06:44:28;;;;;;;59.45;26.00;;;-0.50;93.00;;;;;;5010982;28;20026;-76
2021/01/05 06:46:54;;;;;;;63.35;26.83;;;-0.40;93.10;;;;;;5010950;28;20025;-76
2021/01/05 06:49:20;;;;;;;64.10;26.38;;;-0.50;93.50;;;;;;5011914;28;20030;-76
2021/01/05 06:51:46;;;;;;;77.72;30.20;;;-0.40;93.20;;;;;;5012216;28;20030;-77
2021/01/05 06:54:12;;;;;;;76.45;31.20;;;-0.40;93.10;;;;;;5010870;28;20034;-77
2021/01/05 06:56:48;;;;;;;59.92;26.95;;;-0.30;93.10;;;;;;5012012;28;20030;-76
2021/01/05 06:59:14;;;;;;;62.15;27.73;;;-0.70;93.70;;;;;;5010804;28;20125;-77
2021/01/05 07:01:39;;;;;;;62.28;27.45;;;-0.70;94.60;;;;;;4994638;28;20053;-77
2021/01/05 07:04:05;;;;;;;55.17;27.17;;;-0.90;94.90;;;;;;5012061;28;20022;-77
2021/01/05 07:06:31;;;;;;;60.53;27.90;;;-0.90;95.20;;;;;;4994475;28;20453;-77
2021/01/05 07:08:56;;;;;;;53.35;24.63;;;-1.00;94.80;;;;;;5011743;28;20026;-76
2021/01/05 07:11:22;;;;;;;63.10;26.35;;;-1.00;95.80;;;;;;5011209;28;20026;-77
2021/01/05 07:13:48;;;;;;;61.33;26.52;;;-0.90;95.80;;;;;;5013994;28;20034;-76
2021/01/05 07:16:13;;;;;;;64.90;27.73;;;-0.80;95.50;;;;;;5016261;28;20068;-76
2021/01/05 07:18:39;;;;;;;63.08;25.65;;;-0.70;96.00;;;;;;5014842;28;20029;-76
2021/01/05 07:21:05;;;;;;;66.97;27.38;;;-0.60;95.60;;;;;;5016209;28;20359;-77
2021/01/05 07:23:31;;;;;;;65.20;28.25;;;-0.60;95.30;;;;;;4998245;28;20058;-76
2021/01/05 07:25:56;;;;;;;64.43;25.35;;;-0.70;95.00;;;;;;5015641;28;20354;-76
2021/01/05 07:28:22;;;;;;;57.55;25.85;;;-0.80;95.50;;;;;;5016086;28;20030;-75
2021/01/05 07:30:48;;;;;;;75.20;27.13;;;-1.00;96.40;;;;;;5015306;28;20022;-77
2021/01/05 07:33:13;;;;;;;60.92;26.92;;;-0.80;97.30;;;;;;5014560;28;20092;-76
2021/01/05 07:35:39;;;;;;;53.72;26.05;;;-0.70;96.50;;;;;;5014194;28;20363;-75
2021/01/05 07:38:05;;;;;;;58.83;25.95;;;-0.60;95.30;;;;;;5015808;28;20030;-77
2021/01/05 07:40:31;;;;;;;60.00;26.85;;;-0.40;95.70;;;;;;5015429;28;20022;-77
2021/01/05 07:42:56;;;;;;;65.32;27.73;;;-0.50;95.30;;;;;;5015416;28;20046;-76
2021/01/05 07:45:23;;;;;;;63.30;28.75;;;-0.60;94.80;;;;;;5015249;28;20029;-76
2021/01/05 07:47:49;;;;;;;82.28;28.02;;;-0.60;95.80;;;;;;5015828;28;20452;-77
2021/01/05 07:50:24;;;;;;;68.68;28.50;;;-0.50;96.00;;;;;;5015485;28;20048;-76
2021/01/05 07:52:52;;;;;;;60.13;27.73;;;-0.50;95.40;;;;;;5015100;28;20508;-77
2021/01/05 07:55:21;;;;;;;59.35;26.80;;;-0.60;95.80;;;;;;5014473;28;20109;-76
2021/01/05 07:57:48;;;;;;;62.78;25.60;;;-0.50;96.00;;;;;;4998235;28;20149;-76
2021/01/05 08:00:17;;;;;;;58.25;24.50;;;-0.30;95.70;;;;;;5015159;28;20029;-76
2021/01/05 08:02:43;;;;;;;53.70;23.38;;;-0.50;94.60;;;;;;4997662;28;20026;-77
2021/01/05 08:05:21;;;;;;;62.55;25.90;;;-0.40;94.90;;;;;;5015236;28;20421;-76
2021/01/05 08:07:47;;;;;;;57.15;24.20;;;-0.30;94.40;;;;;;5014751;28;20026;-77
2021/01/05 08:10:29;;;;;;;76.53;29.65;;;-0.40;94.80;;;;;;5015319;28;20018;-77
2021/01/05 08:12:55;;;;;;;70.95;28.55;;;-0.30;95.20;;;;;;5014874;28;20052;-77
2021/01/05 08:15:24;;;;;;;70.68;26.27;;;-0.40;94.50;;;;;;5013848;28;20060;-76
2021/01/05 08:17:51;;;;;;;105.90;28.13;;;-0.30;95.20;;;;;;5013288;28;20025;-77
2021/01/05 08:20:21;;;;;;;59.40;27.08;;;-0.40;94.60;;;;;;5015175;28;20036;-77
2021/01/05 08:22:46;;;;;;;60.78;27.10;;;-0.40;95.30;;;;;;5013561;28;20014;-76
2021/01/05 08:25:14;;;;;;;53.85;24.23;;;-0.40;94.50;;;;;;5013370;28;20508;-77
2021/01/05 08:27:41;;;;;;;58.47;24.45;;;-0.50;95.30;;;;;;5014926;28;20382;-76
2021/01/05 08:30:07;;;;;;;58.67;25.73;;;-0.60;95.10;;;;;;5014489;28;20034;-76
2021/01/05 08:32:33;;;;;;;64.07;24.33;;;-0.60;95.10;;;;;;5013493;28;20218;-76
2021/01/05 08:34:59;;;;;;;57.25;26.70;;;-0.70;95.50;;;;;;5013117;28;20553;-77
2021/01/05 08:37:25;;;;;;;65.45;26.52;;;-0.80;96.00;;;;;;5012845;28;20105;-76
2021/01/05 08:39:51;;;;;;;70.53;25.63;;;-0.60;96.20;;;;;;5013326;28;20718;-77
2021/01/05 08:42:16;;;;;;;72.47;26.70;;;-0.60;96.00;;;;;;5014082;28;20022;-75
2021/01/05 08:44:43;;;;;;;68.20;25.90;;;-0.60;96.60;;;;;;5014680;28;20022;-77
2021/01/05 08:47:09;;;;;;;76.03;24.75;;;-0.70;96.30;;;;;;5013304;28;20034;-76
2021/01/05 08:49:34;;;;;;;68.60;23.75;;;-0.60;96.00;;;;;;5014191;28;20379;-76
2021/01/05 08:52:01;;;;;;;52.70;23.92;;;-0.60;95.60;;;;;;5015918;28;20109;-76
2021/01/05 08:54:26;;;;;;;48.67;22.00;;;-0.60;96.00;;;;;;5017523;28;20528;-76
2021/01/05 08:56:57;;;;;;;53.47;24.40;;;-0.40;95.40;;;;;;5020694;28;20026;-76
2021/01/05 08:59:23;;;;;;;58.53;22.92;;;-0.70;94.80;;;;;;5012225;28;20061;-77
2021/01/05 09:01:49;;;;;;;52.85;23.70;;;-1.20;96.40;;;;;;5014497;28;20097;-76
2021/01/05 09:04:15;;;;;;;51.22;23.25;;;-1.10;97.50;;;;;;5012411;28;20101;-77
2021/01/05 09:06:45;;;;;;;53.50;23.83;;;-1.20;98.00;;;;;;5012478;28;20022;-76
2021/01/05 09:09:11;;;;;;;55.17;23.13;;;-1.10;98.70;;;;;;5012356;28;20486;-76
2021/01/05 09:11:37;;;;;;;99.70;29.90;;;-1.00;98.20;;;;;;4996345;28;20036;-75
2021/01/05 09:14:03;;;;;;;63.00;26.65;;;-0.70;98.50;;;;;;5013637;28;20216;-76
2021/01/05 09:16:31;;;;;;;59.15;26.35;;;-0.50;96.10;;;;;;5013582;28;20038;-77
2021/01/05 09:18:57;;;;;;;80.10;27.08;;;-0.50;95.60;;;;;;5012330;28;20057;-76
2021/01/05 09:21:26;;;;;;;63.00;25.65;;;-0.60;96.00;;;;;;5013569;28;20061;-76
2021/01/05 09:23:53;;;;;;;51.97;23.20;;;-0.40;95.50;;;;;;5014131;28;20036;-76
2021/01/05 09:26:24;;;;;;;59.00;25.08;;;-0.40;95.10;;;;;;5013964;28;20020;-77
2021/01/05 09:28:51;;;;;;;62.70;25.13;;;-0.40;95.10;;;;;;5012957;28;20030;-76
2021/01/05 09:31:18;;;;;;;57.25;23.60;;;-0.40;94.90;;;;;;5012409;28;20038;-76
2021/01/05 09:33:44;;;;;;;80.65;25.77;;;-0.40;94.90;;;;;;5013251;28;20405;-76
2021/01/05 09:36:11;;;;;;;58.08;24.58;;;-0.10;95.20;;;;;;5013943;28;20029;-76
2021/01/05 09:38:39;;;;;;;53.30;25.25;;;-0.20;93.80;;;;;;5001853;28;20029;-77
2021/01/05 09:41:05;;;;;;;60.25;25.45;;;-0.50;95.20;;;;;;5031359;28;20414;-77
2021/01/05 09:43:31;;;;;;;53.88;23.75;;;-0.30;95.80;;;;;;5031282;28;20028;-77
2021/01/05 09:45:57;;;;;;;56.13;24.80;;;-0.20;95.00;;;;;;5014727;28;20485;-77
2021/01/05 09:48:23;;;;;;;177.38;31.55;;;-0.50;94.30;;;;;;5031443;28;20600;-76
2021/01/05 09:50:49;;;;;;;65.30;24.48;;;-0.40;95.80;;;;;;5031373;28;20057;-77
2021/01/05 09:53:15;;;;;;;61.50;25.30;;;-0.20;96.10;;;;;;5028825;28;20388;-76
2021/01/05 09:55:41;;;;;;;70.22;27.75;;;-0.10;94.80;;;;;;5011364;28;20085;-76
2021/01/05 09:58:08;;;;;;;59.08;24.23;;;0.00;94.20;;;;;;5011488;28;20018;-77
2021/01/05 10:00:34;;;;;;;73.32;25.08;;;-0.10;94.10;;;;;;5012881;28;20037;-77
2021/01/05 10:03:00;;;;;;;59.63;24.35;;;0.10;94.80;;;;;;5013183;28;20071;-76
2021/01/05 10:05:25;;;;;;;68.70;25.88;;;0.10;94.00;;;;;;5012527;28;20041;-77
2021/01/05 10:07:51;;;;;;;87.57;25.38;;;0.20;93.80;;;;;;5011559;28;20018;-77
2021/01/05 10:10:26;;;;;;;69.20;24.40;;;0.30;93.40;;;;;;5011612;28;20394;-77
2021/01/05 10:12:52;;;;;;;123.25;26.83;;;0.20;92.90;;;;;;5012646;28;20026;-77
2021/01/05 10:15:24;;;;;;;84.47;26.38;;;0.40;92.30;;;;;;5012514;28;20026;-75
2021/01/05 10:17:50;;;;;;;84.50;27.92;;;0.40;92.40;;;;;;5012672;28;20030;-76
2021/01/05 10:20:18;;;;;;;97.35;25.35;;;0.40;92.50;;;;;;5012306;28;20055;-76
2021/01/05 10:22:44;;;;;;;67.88;24.40;;;0.40;92.20;;;;;;5012434;28;20026;-76
2021/01/05 10:25:12;;;;;;;102.10;26.83;;;0.50;92.40;;;;;;5011052;28;20042;-77
2021/01/05 10:27:38;;;;;;;64.43;25.40;;;0.60;91.90;;;;;;5012245;28;20026;-76
2021/01/05 10:30:06;;;;;;;71.78;25.17;;;0.50;92.10;;;;;;5011592;28;20034;-76
2021/01/05 10:32:32;;;;;;;57.92;25.70;;;0.50;92.10;;;;;;5010988;28;20489;-76
2021/01/05 10:34:58;;;;;;;68.30;24.63;;;-0.10;92.20;;;;;;5012040;28;20080;-77
2021/01/05 10:37:24;;;;;;;69.68;26.20;;;-0.20;93.40;;;;;;5010050;28;20480;-75
2021/01/05 10:39:50;;;;;;;60.58;23.20;;;-0.10;93.20;;;;;;5008696;28;20030;-76
2021/01/05 10:42:15;;;;;;;55.58;22.88;;;-0.40;93.40;;;;;;5012068;28;20022;-76
2021/01/05 10:44:41;;;;;;;110.47;27.10;;;-0.30;99.90;;;;;;5016462;28;20017;-76
2021/01/05 10:47:09;;;;;;;59.42;24.35;;;-0.40;98.10;;;;;;5031628;28;20033;-76
2021/01/05 10:49:35;;;;;;;75.57;24.40;;;-0.40;97.70;;;;;;5031107;28;20445;-76
2021/01/05 10:52:03;;;;;;;51.75;23.25;;;-0.30;97.80;;;;;;5032344;28;20061;-77
2021/01/05 10:54:30;;;;;;;69.95;24.83;;;-0.40;96.10;;;;;;5030824;28;20477;-75
2021/01/05 10:56:59;;;;;;;68.03;24.95;;;-0.50;97.60;;;;;;5030529;28;20073;-77
2021/01/05 10:59:27;;;;;;;62.42;25.13;;;-0.30;97.90;;;;;;5032451;28;20108;-77
2021/01/05 11:01:55;;;;;;;63.33;25.15;;;0.00;95.70;;;;;;5032119;28;20473;-77
2021/01/05 11:04:26;;;;;;;78.32;23.08;;;0.30;95.30;;;;;;5031312;28;20508;-77
2021/01/05 11:07:00;;;;;;;85.05;25.90;;;0.40;94.30;;;;;;5032477;28;20021;-77
2021/01/05 11:09:27;;;;;;;56.45;24.60;;;0.40;93.50;;;;;;5030585;28;20033;-77
2021/01/05 11:12:01;;;;;;;107.72;28.05;;;0.30;94.10;;;;;;5031585;28;20029;-76
2021/01/05 11:14:27;;;;;;;73.70;25.40;;;0.30;93.50;;;;;;5030831;28;20026;-77
2021/01/05 11:16:54;;;;;;;60.65;24.13;;;0.50;93.50;;;;;;5031878;28;20029;-77
2021/01/05 11:19:20;;;;;;;77.80;25.10;;;0.60;92.80;;;;;;5030522;28;20096;-77
2021/01/05 11:22:06;;;;;;;68.57;24.60;;;0.70;92.00;;;;;;5031552;28;20021;-76
2021/01/05 11:24:35;;;;;;;83.03;25.33;;;0.60;92.00;;;;;;5030368;28;20386;-77
2021/01/05 11:27:02;;;;;;;97.22;28.77;;;0.50;92.30;;;;;;5031299;28;20079;-76
2021/01/05 11:29:28;;;;;;;68.75;26.00;;;0.30;92.60;;;;;;5030002;28;20026;-76
2021/01/05 11:32:06;;;;;;;61.65;25.88;;;0.30;93.20;;;;;;5031304;28;20417;-76
2021/01/05 11:34:32;;;;;;;54.55;25.33;;;0.10;92.60;;;;;;5031541;28;20033;-76
2021/01/05 11:37:11;;;;;;;67.10;26.33;;;0.00;93.30;;;;;;5031742;28;20021;-76
2021/01/05 11:39:40;;;;;;;98.65;27.50;;;-0.10;94.00;;;;;;5030203;28;20056;-76
2021/01/05 11:42:07;;;;;;;61.40;25.55;;;0.10;94.00;;;;;;5031835;28;20021;-76
2021/01/05 11:44:32;;;;;;;133.30;29.65;;;0.10;93.70;;;;;;5030254;28;20057;-77
2021/01/05 11:46:58;;;;;;;103.05;26.85;;;0.20;93.10;;;;;;5031667;28;20076;-76
2021/01/05 11:49:25;;;;;;;116.15;30.42;;;0.40;93.10;;;;;;5031358;28;20401;-77
2021/01/05 11:51:52;;;;;;;105.88;26.30;;;0.50;92.60;;;;;;5030518;28;20037;-76
2021/01/05 11:54:20;;;;;;;68.70;26.95;;;0.60;92.00;;;;;;5029790;28;20387;-77
2021/01/05 11:56:45;;;;;;;52.95;24.52;;;0.60;91.80;;;;;;5030001;28;20112;-76
2021/01/05 11:59:13;;;;;;;59.83;24.27;;;0.30;91.70;;;;;;5030768;28;20168;-76
2021/01/05 12:01:39;;;;;;;101.45;29.17;;;-0.10;93.20;;;;;;5035006;28;20029;-77
2021/01/05 12:04:07;;;;;;;75.47;24.75;;;-0.20;94.10;;;;;;5033759;28;20017;-76
2021/01/05 12:06:33;;;;;;;67.43;24.60;;;-0.10;94.20;;;;;;5036082;28;20025;-79
2021/01/05 12:08:58;;;;;;;81.30;28.27;;;-0.10;94.90;;;;;;5036270;28;20485;-79
2021/01/05 12:11:24;;;;;;;66.30;25.67;;;0.20;94.20;;;;;;5036078;28;20525;-80
2021/01/05 12:13:51;;;;;;;62.05;26.63;;;0.30;93.00;;;;;;5019244;28;20030;-77
2021/01/05 12:16:34;;;;;;;65.30;27.48;;;0.10;92.80;;;;;;5033862;28;20033;-80
2021/01/05 12:19:04;;;;;;;62.63;28.25;;;-0.10;93.80;;;;;;5017062;28;20119;-76
2021/01/05 12:21:33;;;;;;;111.07;27.75;;;-0.30;94.80;;;;;;5018534;28;20022;-76
2021/01/05 12:23:58;;;;;;;73.15;26.05;;;-0.20;95.60;;;;;;4991791;28;20481;-77
2021/01/05 12:26:30;;;;;;;66.65;23.95;;;-0.10;94.60;;;;;;5015076;28;20068;-76
2021/01/05 12:28:57;;;;;;;68.50;25.35;;;-0.10;95.30;;;;;;5013625;28;20030;-76
2021/01/05 12:31:24;;;;;;;73.18;27.42;;;0.00;95.50;;;;;;5014969;28;20037;-77
2021/01/05 12:33:50;;;;;;;94.30;31.15;;;0.20;94.30;;;;;;5014690;28;20029;-78
2021/01/05 12:36:26;;;;;;;91.90;28.95;;;0.00;94.10;;;;;;5013373;28;20114;-76
2021/01/05 12:38:52;;;;;;;248.45;37.45;;;0.20;94.40;;;;;;5012050;28;20026;-76
2021/01/05 12:41:18;;;;;;;188.68;34.50;;;0.50;93.40;;;;;;5013463;28;20029;-77
2021/01/05 12:43:44;;;;;;;81.07;27.08;;;0.50;93.30;;;;;;4997181;28;20101;-75
2021/01/05 12:46:10;;;;;;;56.45;24.98;;;0.70;92.60;;;;;;5014442;28;20132;-77
2021/01/05 12:48:36;;;;;;;64.03;25.85;;;0.40;91.60;;;;;;5014110;28;20111;-76